Time;durP1;ratioP1;P1;durP2;ratioP2;P2;SDS_P1;SDS_P2;PMS_P1;PMS_P2;Temp;Humidity;BMP_temperature;BMP_pressure;BME280_temperature;BME280_humidity;BME280_pressure;Samples;Min_cycle;Max_cycle;Signal;HPM_P1;HPM_P2
2022/08/11 00:01:38;;;;;;;4.07;2.20;;;18.00;94.80;;;;;;5012956;28;20590;-77
2022/08/11 00:04:06;;;;;;;3.30;2.45;;;18.90;95.30;;;;;;5014245;28;20211;-77
2022/08/11 00:06:35;;;;;;;3.03;2.20;;;18.80;95.40;;;;;;5013140;28;20211;-77
2022/08/11 00:09:06;;;;;;;7.38;2.88;;;18.80;95.60;;;;;;5012857;28;20206;-77
2022/08/11 00:11:35;;;;;;;5.20;2.42;;;18.80;95.80;;;;;;5013588;28;20214;-76
2022/08/11 00:14:04;;;;;;;2.50;2.30;;;18.80;95.90;;;;;;5012418;28;20207;-76
2022/08/11 00:16:31;;;;;;;5.50;2.85;;;18.80;95.90;;;;;;5012914;28;20586;-76
2022/08/11 00:19:00;;;;;;;6.45;3.00;;;18.70;95.90;;;;;;5012579;28;20235;-77
2022/08/11 00:21:28;;;;;;;4.68;2.75;;;18.80;96.10;;;;;;5011939;28;20334;-75
2022/08/11 00:23:57;;;;;;;5.30;2.97;;;18.70;96.20;;;;;;5012309;28;20207;-77
2022/08/11 00:26:26;;;;;;;3.28;2.00;;;18.70;96.20;;;;;;5013450;28;20211;-76
2022/08/11 00:28:53;;;;;;;4.32;2.53;;;18.60;96.20;;;;;;5009453;28;20204;-76
2022/08/11 00:31:26;;;;;;;3.85;2.17;;;18.60;96.50;;;;;;5012729;28;20215;-76
2022/08/11 00:33:53;;;;;;;2.75;2.53;;;18.60;96.60;;;;;;5011874;28;20222;-77
2022/08/11 00:36:38;;;;;;;4.82;2.80;;;18.60;96.60;;;;;;5009391;28;20207;-77
2022/08/11 00:39:06;;;;;;;5.57;2.78;;;18.50;96.80;;;;;;5012508;28;20664;-75
2022/08/11 00:41:44;;;;;;;4.85;2.95;;;18.50;97.00;;;;;;5011798;28;20619;-76
2022/08/11 00:44:27;;;;;;;2.83;2.50;;;18.50;97.30;;;;;;5011485;28;20203;-76
2022/08/11 00:47:07;;;;;;;3.72;1.85;;;18.40;97.40;;;;;;4999260;28;20203;-76
2022/08/11 00:49:46;;;;;;;5.00;2.40;;;18.40;97.60;;;;;;5012221;28;20206;-76
2022/08/11 00:52:29;;;;;;;2.75;2.03;;;18.40;97.90;;;;;;5008196;28;20207;-76
2022/08/11 00:55:20;;;;;;;4.90;2.22;;;18.30;98.00;;;;;;5011495;28;20203;-75
2022/08/11 00:58:21;;;;;;;4.40;2.42;;;18.30;98.20;;;;;;5011356;28;20393;-75
2022/08/11 01:01:08;;;;;;;3.58;2.20;;;18.20;98.30;;;;;;5003059;28;20226;-76
2022/08/11 01:04:19;;;;;;;2.40;2.20;;;18.20;98.60;;;;;;5012666;28;20207;-76
2022/08/11 01:07:17;;;;;;;6.60;2.60;;;18.10;98.80;;;;;;4968922;28;20220;-76
2022/08/11 01:09:59;;;;;;;5.40;2.30;;;18.10;99.10;;;;;;5004328;28;20219;-76
2022/08/11 01:12:44;;;;;;;3.38;2.05;;;18.00;99.30;;;;;;4998973;28;20279;-75
2022/08/11 01:15:54;;;;;;;2.03;1.90;;;18.00;99.60;;;;;;5003452;28;20665;-76
2022/08/11 01:18:55;;;;;;;7.88;2.38;;;17.90;99.80;;;;;;4994114;28;20215;-75
2022/08/11 01:22:10;;;;;;;3.22;2.25;;;17.90;99.90;;;;;;4996670;28;20576;-75
2022/08/11 01:25:07;;;;;;;4.90;2.50;;;17.90;99.90;;;;;;5001994;28;20616;-75
2022/08/11 01:28:15;;;;;;;4.22;2.65;;;17.90;99.90;;;;;;4999315;28;20211;-75
2022/08/11 01:31:16;;;;;;;8.98;2.90;;;17.80;99.90;;;;;;4981032;28;20210;-76
2022/08/11 01:34:33;;;;;;;3.53;2.50;;;17.80;99.90;;;;;;5002831;28;20226;-75
2022/08/11 01:37:29;;;;;;;3.72;2.67;;;17.80;99.90;;;;;;5006386;28;20215;-75
2022/08/11 01:40:26;;;;;;;3.38;2.33;;;17.70;99.90;;;;;;5000221;28;20212;-75
2022/08/11 01:46:26;;;;;;;5.67;2.50;;;17.70;99.90;;;;;;5004083;28;20256;-75
2022/08/11 01:49:03;;;;;;;3.53;2.50;;;17.70;99.90;;;;;;4998666;28;20286;-75
2022/08/11 01:51:44;;;;;;;4.75;2.47;;;17.60;99.90;;;;;;5007691;28;20579;-75
2022/08/11 01:54:24;;;;;;;7.50;2.72;;;17.60;99.90;;;;;;5010616;28;20660;-74
2022/08/11 01:57:02;;;;;;;3.47;2.50;;;17.60;99.90;;;;;;5012217;28;20723;-75
2022/08/11 01:59:34;;;;;;;5.33;2.87;;;17.60;99.90;;;;;;5011450;28;20219;-76
2022/08/11 02:02:19;;;;;;;2.53;2.33;;;17.50;99.90;;;;;;5011772;28;20218;-76
2022/08/11 02:04:56;;;;;;;5.63;2.33;;;17.50;99.90;;;;;;5011050;28;20222;-76
2022/08/11 02:07:31;;;;;;;3.43;2.73;;;17.50;99.90;;;;;;5012227;28;20203;-75
2022/08/11 02:12:59;;;;;;;4.40;2.65;;;17.40;99.90;;;;;;5011333;28;20290;-77
2022/08/11 02:15:33;;;;;;;6.30;2.72;;;17.40;99.90;;;;;;5011036;28;20207;-76
2022/08/11 02:18:13;;;;;;;4.57;2.50;;;17.40;99.90;;;;;;5016477;28;20281;-76
2022/08/11 02:23:40;;;;;;;2.85;2.33;;;17.40;99.90;;;;;;5010570;28;20343;-74
2022/08/11 02:26:14;;;;;;;4.75;2.70;;;17.40;99.90;;;;;;5009991;28;20282;-75
2022/08/11 02:28:53;;;;;;;7.43;2.20;;;17.30;99.90;;;;;;5006270;28;20214;-74
2022/08/11 02:34:28;;;;;;;5.97;2.80;;;17.30;99.90;;;;;;5011519;28;20293;-74
2022/08/11 02:37:02;;;;;;;3.03;2.43;;;17.30;99.90;;;;;;5011127;28;20632;-75
2022/08/11 02:39:39;;;;;;;7.23;2.83;;;17.20;99.90;;;;;;5011010;28;20299;-74
2022/08/11 02:42:25;;;;;;;3.87;2.70;;;17.20;99.90;;;;;;5011821;28;20211;-75
2022/08/11 02:45:11;;;;;;;2.87;2.40;;;17.30;99.90;;;;;;5010785;28;20210;-74
2022/08/11 02:50:39;;;;;;;4.47;2.50;;;17.20;99.90;;;;;;5000133;28;20315;-75
2022/08/11 02:53:12;;;;;;;8.57;2.77;;;17.20;99.90;;;;;;5010030;28;20214;-76
2022/08/11 02:55:52;;;;;;;5.00;2.83;;;17.20;99.90;;;;;;5010834;28;20211;-76
2022/08/11 02:58:36;;;;;;;7.13;2.37;;;17.10;99.90;;;;;;5009543;28;20226;-77
2022/08/11 03:01:10;;;;;;;3.90;2.50;;;17.10;99.90;;;;;;5012394;28;20381;-77
2022/08/11 03:03:50;;;;;;;4.30;3.07;;;17.00;99.90;;;;;;5009596;28;20203;-75
2022/08/11 03:06:26;;;;;;;4.53;3.00;;;17.00;99.90;;;;;;5010491;28;20214;-75
2022/08/11 03:08:59;;;;;;;4.73;2.70;;;16.90;99.90;;;;;;5000527;28;20195;-75
2022/08/11 03:17:32;;;;;;;7.53;4.80;;;16.90;99.90;;;;;;5007651;28;20288;-76
2022/08/11 03:20:23;;;;;;;5.85;3.05;;;16.80;99.90;;;;;;5009990;28;20227;-76
2022/08/11 03:22:58;;;;;;;4.27;2.90;;;16.80;99.90;;;;;;5011212;28;20236;-77
2022/08/11 03:25:33;;;;;;;5.33;3.20;;;16.70;99.90;;;;;;5011629;28;20210;-76
2022/08/11 03:28:10;;;;;;;5.00;2.90;;;16.70;99.90;;;;;;5009554;28;20206;-76
2022/08/11 03:30:50;;;;;;;5.03;3.03;;;16.70;99.90;;;;;;5009753;28;20201;-76
2022/08/11 03:36:27;;;;;;;4.17;2.70;;;16.70;99.90;;;;;;4993195;28;20269;-76
2022/08/11 03:39:08;;;;;;;6.40;2.90;;;16.70;99.90;;;;;;5010462;28;20214;-76
2022/08/11 03:41:46;;;;;;;6.60;3.10;;;16.80;99.90;;;;;;5011325;28;20233;-77
2022/08/11 03:44:25;;;;;;;7.37;3.17;;;16.80;99.90;;;;;;5010766;28;20198;-76
2022/08/11 03:47:17;;;;;;;7.47;3.40;;;16.80;99.90;;;;;;5006095;28;20203;-75
2022/08/11 03:49:56;;;;;;;7.17;2.60;;;16.80;99.90;;;;;;5008840;28;20199;-75
2022/08/11 03:52:36;;;;;;;4.10;2.70;;;16.90;99.90;;;;;;5010311;28;20298;-76
2022/08/11 03:55:11;;;;;;;4.18;2.97;;;16.90;99.90;;;;;;5010787;28;20559;-75
2022/08/11 03:58:22;;;;;;;6.65;3.10;;;17.00;99.90;;;;;;5010761;28;20243;-75
2022/08/11 04:01:31;;;;;;;4.20;2.90;;;17.00;99.90;;;;;;5001146;28;20223;-75
2022/08/11 04:04:34;;;;;;;5.65;3.10;;;17.10;99.90;;;;;;4981487;28;20633;-76
2022/08/11 04:07:57;;;;;;;7.17;3.00;;;17.20;99.90;;;;;;5010168;28;20688;-76
2022/08/11 04:11:09;;;;;;;4.43;2.47;;;17.20;99.90;;;;;;5011061;28;20250;-76
2022/08/11 04:17:25;;;;;;;5.63;2.80;;;17.30;99.90;;;;;;5010191;28;20575;-75
2022/08/11 04:20:29;;;;;;;6.43;2.90;;;17.40;99.90;;;;;;5009521;28;20718;-75
2022/08/11 04:23:14;;;;;;;4.87;2.60;;;17.40;99.90;;;;;;4994955;28;20230;-78
2022/08/11 04:26:22;;;;;;;7.95;2.95;;;17.50;99.90;;;;;;5015013;28;20215;-78
2022/08/11 04:28:57;;;;;;;6.60;3.15;;;17.50;99.90;;;;;;5003448;28;20692;-77
2022/08/11 04:31:36;;;;;;;5.35;2.78;;;17.60;99.90;;;;;;5012107;28;20234;-77
2022/08/11 04:34:33;;;;;;;7.95;2.72;;;17.60;99.90;;;;;;5014202;28;20203;-77
2022/08/11 04:37:33;;;;;;;3.90;2.85;;;17.70;99.90;;;;;;5015668;28;20322;-76
2022/08/11 04:40:37;;;;;;;8.45;3.00;;;17.70;99.90;;;;;;5009558;28;20235;-76
2022/08/11 04:43:40;;;;;;;6.25;2.22;;;17.80;99.90;;;;;;5010500;28;20211;-76
2022/08/11 04:46:40;;;;;;;5.72;3.00;;;17.90;99.90;;;;;;5008949;28;20579;-76
2022/08/11 05:02:56;;;;;;;3.08;2.45;;;18.00;99.90;;;;;;4973293;28;20208;-76
2022/08/11 05:05:31;;;;;;;9.30;3.10;;;18.00;99.90;;;;;;5013801;28;20215;-75
2022/08/11 05:08:43;;;;;;;3.55;2.88;;;18.00;99.90;;;;;;5013821;28;20211;-77
2022/08/11 05:11:52;;;;;;;5.18;2.88;;;18.10;99.90;;;;;;5003639;28;20215;-77
2022/08/11 05:37:04;;;;;;;24.98;8.98;;;18.50;99.90;;;;;;5010144;28;20218;-76
2022/08/11 05:56:21;;;;;;;21.17;9.32;;;19.00;99.90;;;;;;5010533;28;20358;-75
2022/08/11 05:58:51;;;;;;;9.60;4.72;;;19.20;99.90;;;;;;5008636;28;20215;-76
2022/08/11 06:01:24;;;;;;;11.05;5.25;;;19.30;99.90;;;;;;5009085;28;20227;-78
2022/08/11 06:06:40;;;;;;;23.60;9.07;;;19.40;99.90;;;;;;5011586;28;20322;-76
2022/08/11 06:09:08;;;;;;;21.25;8.43;;;19.50;99.90;;;;;;5012622;28;20204;-71
2022/08/11 06:11:39;;;;;;;6.00;3.20;;;19.60;99.90;;;;;;5012024;28;20242;-72
2022/08/11 06:14:07;;;;;;;9.82;5.22;;;19.70;99.90;;;;;;5000401;28;20229;-75
2022/08/11 06:16:36;;;;;;;7.70;4.25;;;19.70;99.90;;;;;;5013007;28;20218;-75
2022/08/11 06:19:04;;;;;;;7.05;3.28;;;19.80;99.90;;;;;;5013375;28;20183;-73
2022/08/11 06:21:34;;;;;;;11.15;4.13;;;20.00;99.90;;;;;;5008474;28;20237;-75
2022/08/11 06:24:03;;;;;;;7.82;2.70;;;20.10;99.90;;;;;;5011367;28;20257;-74
2022/08/11 06:26:30;;;;;;;7.85;3.33;;;20.20;99.90;;;;;;5011987;28;20218;-76
2022/08/11 06:29:00;;;;;;;11.50;3.15;;;20.30;99.90;;;;;;5005229;28;20203;-75
2022/08/11 06:31:28;;;;;;;7.68;3.72;;;20.30;99.90;;;;;;5011744;28;20207;-75
2022/08/11 06:34:09;;;;;;;7.05;3.22;;;20.50;99.90;;;;;;5012225;28;20215;-75
2022/08/11 06:36:42;;;;;;;5.57;2.45;;;20.50;99.90;;;;;;5010472;28;20206;-76
2022/08/11 06:39:22;;;;;;;6.72;2.50;;;20.60;99.90;;;;;;5009008;28;20214;-76
2022/08/11 06:41:52;;;;;;;3.60;2.47;;;20.60;99.90;;;;;;5009034;28;20211;-75
2022/08/11 06:44:27;;;;;;;11.23;6.40;;;20.70;99.90;;;;;;5012899;28;20199;-73
2022/08/11 06:46:59;;;;;;;7.05;2.80;;;20.70;99.90;;;;;;5011825;28;20199;-77
2022/08/11 06:52:30;;;;;;;6.10;2.25;;;20.90;99.90;;;;;;5003282;28;20576;-76
2022/08/11 06:55:05;;;;;;;6.28;2.70;;;21.00;99.90;;;;;;5013482;28;20213;-75
2022/08/11 07:00:27;;;;;;;4.72;2.42;;;21.10;99.90;;;;;;5016940;28;20223;-70
2022/08/11 07:03:00;;;;;;;6.10;2.60;;;21.30;99.90;;;;;;5012676;28;20203;-73
2022/08/11 07:05:42;;;;;;;4.90;2.30;;;21.30;99.90;;;;;;5012392;28;20483;-75
2022/08/11 07:17:34;;;;;;;5.95;2.72;;;21.90;99.90;;;;;;5008762;28;20722;-74
2022/08/11 07:31:16;;;;;;;3.75;1.67;;;22.50;99.90;;;;;;5001625;28;20194;-73
2022/08/11 07:33:48;;;;;;;2.72;1.52;;;22.40;99.90;;;;;;4999258;28;20294;-73
2022/08/11 07:36:16;;;;;;;7.47;3.65;;;22.60;99.90;;;;;;4999939;28;20205;-72
2022/08/11 07:38:49;;;;;;;4.93;2.25;;;22.60;99.90;;;;;;4998587;28;20211;-69
2022/08/11 07:41:18;;;;;;;2.05;1.60;;;22.80;99.90;;;;;;4994515;28;20247;-69
2022/08/11 07:43:47;;;;;;;4.53;2.45;;;22.90;99.90;;;;;;5002993;28;20203;-70
2022/08/11 07:54:33;;;;;;;4.82;1.70;;;23.50;99.90;;;;;;5010598;28;20694;-69
2022/08/11 07:57:00;;;;;;;3.60;1.80;;;23.70;99.90;;;;;;5008400;28;20623;-69
2022/08/11 08:18:46;;;;;;;2.42;1.33;;;24.50;95.70;;;;;;5011056;28;20234;-69
2022/08/11 08:21:14;;;;;;;1.17;1.08;;;24.70;95.60;;;;;;5010944;28;20617;-69
2022/08/11 08:23:43;;;;;;;1.38;1.20;;;24.80;95.40;;;;;;5012398;28;20203;-69
2022/08/11 08:30:46;;;;;;;1.40;1.02;;;25.00;94.10;;;;;;5009266;28;20225;-68
2022/08/11 08:31:44;;;;;;;3.95;1.00;;;25.10;93.50;;;;;;5004364;28;20312;-68
2022/08/11 08:34:11;;;;;;;8.30;1.58;;;25.00;93.30;;;;;;5009492;28;20211;-68
2022/08/11 08:36:42;;;;;;;6.10;1.27;;;25.00;93.70;;;;;;5009655;28;20290;-68
2022/08/11 08:39:09;;;;;;;3.08;1.15;;;25.20;93.40;;;;;;5010601;28;20203;-69
2022/08/11 08:41:38;;;;;;;2.30;1.30;;;25.50;92.20;;;;;;5009774;28;20310;-69
2022/08/11 08:44:09;;;;;;;1.58;0.90;;;25.50;92.40;;;;;;5009559;28;20216;-68
2022/08/11 08:46:40;;;;;;;4.07;1.38;;;25.60;92.40;;;;;;5010311;28;20202;-68
2022/08/11 08:49:10;;;;;;;2.85;1.50;;;25.80;92.10;;;;;;5012666;28;20428;-69
2022/08/11 08:51:40;;;;;;;2.78;1.23;;;26.00;91.10;;;;;;5013012;28;20683;-68
2022/08/11 08:54:09;;;;;;;2.65;1.00;;;26.10;91.00;;;;;;5013099;28;20211;-69
2022/08/11 08:56:40;;;;;;;5.03;1.80;;;26.20;90.70;;;;;;5010989;28;20235;-69
2022/08/11 08:59:09;;;;;;;5.10;1.65;;;26.10;90.00;;;;;;5011306;28;20636;-69
2022/08/11 09:01:40;;;;;;;3.38;1.58;;;26.20;90.30;;;;;;5011440;28;20252;-69
2022/08/11 09:04:08;;;;;;;3.75;1.25;;;26.30;89.10;;;;;;5012410;28;20720;-69
2022/08/11 09:06:39;;;;;;;6.05;1.80;;;26.50;88.20;;;;;;5012024;28;20733;-68
2022/08/11 09:09:08;;;;;;;3.60;1.90;;;26.60;86.90;;;;;;5009620;28;20595;-68
2022/08/11 09:14:19;;;;;;;2.10;1.10;;;26.60;86.20;;;;;;5009781;28;20269;-70
2022/08/11 09:16:47;;;;;;;1.45;0.90;;;26.60;85.10;;;;;;5009809;28;20218;-69
2022/08/11 09:19:17;;;;;;;3.58;1.00;;;26.70;84.60;;;;;;5012413;28;20211;-69
2022/08/11 09:21:44;;;;;;;5.30;1.65;;;26.70;83.80;;;;;;5007205;28;20235;-69
2022/08/11 09:27:01;;;;;;;5.53;1.73;;;26.80;82.90;;;;;;5007032;28;20198;-69
2022/08/11 09:29:31;;;;;;;3.38;1.70;;;26.90;81.70;;;;;;5006231;28;20286;-69
2022/08/11 09:31:59;;;;;;;3.45;1.40;;;26.80;81.00;;;;;;5003818;28;20207;-69
2022/08/11 09:34:27;;;;;;;6.95;1.80;;;26.80;81.00;;;;;;5012544;28;20207;-68
2022/08/11 09:44:45;;;;;;;1.70;1.02;;;26.80;80.20;;;;;;5011192;28;20234;-70
2022/08/11 09:45:16;;;;;;;2.00;0.95;;;26.90;80.10;;;;;;5012820;28;20199;-70
2022/08/11 09:47:44;;;;;;;5.10;1.00;;;27.30;79.40;;;;;;5006459;28;20215;-70
2022/08/11 09:50:11;;;;;;;1.55;0.85;;;27.50;77.80;;;;;;5009956;28;20207;-72
2022/08/11 09:52:40;;;;;;;2.78;1.20;;;27.60;77.00;;;;;;5005928;28;20214;-70
2022/08/11 09:55:10;;;;;;;2.08;0.85;;;27.70;75.50;;;;;;5012378;28;20207;-67
2022/08/11 10:00:29;;;;;;;2.70;1.00;;;27.80;74.50;;;;;;5011417;28;20273;-68
2022/08/11 10:02:56;;;;;;;6.72;1.65;;;27.90;75.40;;;;;;5011531;28;20223;-69
2022/08/11 10:08:13;;;;;;;1.67;0.70;;;28.40;72.70;;;;;;5010153;28;20194;-68
2022/08/11 10:10:41;;;;;;;0.60;0.60;;;28.70;71.70;;;;;;5004556;28;20213;-69
2022/08/11 10:13:11;;;;;;;1.13;0.82;;;28.90;69.20;;;;;;5011871;28;20226;-69
2022/08/11 10:15:42;;;;;;;0.63;0.63;;;28.80;67.40;;;;;;5012123;28;20207;-69
2022/08/11 10:21:00;;;;;;;1.35;1.25;;;29.00;67.20;;;;;;4999670;28;20194;-69
2022/08/11 10:29:01;;;;;;;1.30;0.65;;;28.40;67.40;;;;;;5012753;28;20201;-69
2022/08/11 10:34:15;;;;;;;2.00;1.00;;;28.60;68.40;;;;;;5011866;28;20233;-69
2022/08/11 10:36:47;;;;;;;1.23;0.90;;;28.90;67.30;;;;;;5012124;28;20214;-69
2022/08/11 10:39:18;;;;;;;1.42;0.70;;;29.20;66.40;;;;;;5010723;28;20669;-69
2022/08/11 10:44:36;;;;;;;2.15;1.15;;;29.80;64.20;;;;;;5006705;28;20273;-69
2022/08/11 10:51:11;;;;;;;0.88;0.80;;;29.90;62.90;;;;;;5010463;28;20211;-69
2022/08/11 11:00:57;;;;;;;1.13;1.00;;;29.30;63.20;;;;;;5002055;28;20238;-69
2022/08/11 11:03:29;;;;;;;1.63;0.70;;;29.20;63.20;;;;;;4999696;28;20211;-69
2022/08/11 11:06:05;;;;;;;0.85;0.85;;;29.00;63.20;;;;;;5002635;28;20195;-70
2022/08/11 11:11:19;;;;;;;1.23;0.90;;;28.70;64.10;;;;;;5007346;28;20202;-69
2022/08/11 11:19:25;;;;;;;2.75;1.13;;;28.10;66.50;;;;;;4998040;28;20245;-69
2022/08/11 11:22:36;;;;;;;2.30;1.20;;;27.90;66.70;;;;;;5008639;28;20620;-68
2022/08/11 11:24:52;;;;;;;3.33;0.80;;;27.80;67.20;;;;;;5009188;28;20214;-69
2022/08/11 11:27:29;;;;;;;3.13;1.20;;;27.60;67.60;;;;;;5010726;28;20198;-69
2022/08/11 11:30:06;;;;;;;5.55;1.17;;;27.40;67.80;;;;;;5010624;28;20285;-69
2022/08/11 11:32:44;;;;;;;5.60;0.75;;;27.40;67.80;;;;;;5008513;28;20199;-69
2022/08/11 11:35:26;;;;;;;1.85;0.90;;;27.60;68.00;;;;;;5012403;28;20207;-70
2022/08/11 11:37:54;;;;;;;2.50;1.85;;;27.80;67.70;;;;;;5010815;28;20294;-68
2022/08/11 11:40:23;;;;;;;1.30;0.75;;;27.70;67.30;;;;;;5014771;28;20211;-68
2022/08/11 11:42:53;;;;;;;2.08;1.15;;;27.70;67.40;;;;;;5013691;28;20234;-69
2022/08/11 11:45:22;;;;;;;4.88;3.25;;;27.60;67.60;;;;;;5013166;28;20215;-69
2022/08/11 11:47:51;;;;;;;2.75;1.63;;;27.50;68.00;;;;;;5013576;28;20225;-70
2022/08/11 11:50:23;;;;;;;3.92;0.90;;;27.40;68.40;;;;;;5013667;28;20254;-72
2022/08/11 11:52:52;;;;;;;1.88;0.90;;;27.40;68.70;;;;;;5015722;28;20207;-69
2022/08/11 11:55:20;;;;;;;3.15;0.98;;;27.60;68.40;;;;;;5014672;28;20199;-69
2022/08/11 12:03:19;;;;;;;1.17;1.00;;;28.50;64.60;;;;;;5012699;28;20242;-69
2022/08/11 12:05:48;;;;;;;0.90;0.90;;;28.70;62.10;;;;;;5002089;28;20660;-70
2022/08/11 12:08:16;;;;;;;2.88;1.20;;;29.00;60.30;;;;;;5010689;28;20203;-69
2022/08/11 12:10:47;;;;;;;0.73;0.73;;;29.10;61.10;;;;;;5008613;28;20242;-69
2022/08/11 12:16:02;;;;;;;0.70;0.70;;;29.30;60.40;;;;;;5008000;28;20213;-71
2022/08/11 12:18:32;;;;;;;2.67;0.82;;;29.40;60.60;;;;;;5008344;28;20213;-71
2022/08/11 12:21:02;;;;;;;0.63;0.63;;;29.40;59.40;;;;;;5013052;28;20207;-71
2022/08/11 12:29:01;;;;;;;0.93;0.70;;;28.50;58.90;;;;;;5013590;28;20226;-70
2022/08/11 12:31:29;;;;;;;0.80;0.80;;;28.20;59.70;;;;;;5012405;28;20599;-70
2022/08/11 12:34:01;;;;;;;1.42;0.73;;;27.90;60.80;;;;;;5013456;28;20215;-70
2022/08/11 12:36:32;;;;;;;2.25;0.95;;;27.70;62.30;;;;;;5012560;28;20211;-72
2022/08/11 12:39:00;;;;;;;2.38;0.85;;;27.40;61.80;;;;;;5011728;28;20629;-68
2022/08/11 12:47:02;;;;;;;2.15;0.98;;;27.50;63.90;;;;;;4988462;28;20292;-69
2022/08/11 12:52:23;;;;;;;1.90;0.90;;;28.30;63.10;;;;;;5010095;28;20195;-69
2022/08/11 12:54:58;;;;;;;2.28;0.82;;;28.70;61.40;;;;;;5011831;28;20218;-70
2022/08/11 13:05:55;;;;;;;2.33;0.55;;;29.20;56.80;;;;;;5012204;28;20269;-70
2022/08/11 13:08:26;;;;;;;2.25;0.70;;;29.00;57.00;;;;;;5005586;28;20214;-69
2022/08/11 13:13:42;;;;;;;2.35;0.60;;;28.50;57.70;;;;;;5009046;28;20195;-69
2022/08/11 13:16:10;;;;;;;0.70;0.60;;;28.30;58.40;;;;;;5007568;28;20372;-68
2022/08/11 13:18:41;;;;;;;1.60;0.80;;;28.20;59.00;;;;;;5008680;28;20215;-68
2022/08/11 13:21:09;;;;;;;0.80;0.80;;;28.10;59.60;;;;;;5004151;28;20207;-69
2022/08/11 13:23:38;;;;;;;0.90;0.85;;;28.00;59.80;;;;;;5006052;28;20699;-69
2022/08/11 13:26:07;;;;;;;2.90;0.70;;;27.90;60.20;;;;;;5000721;28;20207;-69
2022/08/11 13:28:35;;;;;;;1.13;0.65;;;27.80;60.60;;;;;;5010833;28;20215;-69
2022/08/11 13:31:13;;;;;;;0.70;0.63;;;27.80;60.60;;;;;;5009506;28;20692;-70
2022/08/11 13:33:42;;;;;;;4.22;1.13;;;28.10;60.10;;;;;;5014794;28;20203;-71
2022/08/11 13:36:10;;;;;;;2.45;0.98;;;28.40;59.70;;;;;;5012815;28;20219;-71
2022/08/11 13:38:41;;;;;;;1.67;0.70;;;28.60;58.70;;;;;;5011795;28;20222;-71
2022/08/11 13:43:51;;;;;;;1.00;0.90;;;28.90;56.90;;;;;;5005508;28;20306;-70
2022/08/11 13:46:20;;;;;;;1.48;0.90;;;28.70;57.40;;;;;;5010070;28;20553;-70
2022/08/11 13:48:47;;;;;;;3.25;0.82;;;28.70;57.60;;;;;;5012037;28;20660;-69
2022/08/11 13:54:02;;;;;;;1.23;0.90;;;28.50;57.70;;;;;;5011796;28;20565;-70
2022/08/11 13:56:29;;;;;;;7.15;1.45;;;28.30;58.30;;;;;;5009274;28;20274;-69
2022/08/11 13:58:57;;;;;;;1.10;0.90;;;28.30;58.90;;;;;;5012259;28;20550;-70
2022/08/11 14:01:29;;;;;;;1.33;0.77;;;28.40;58.90;;;;;;5012548;28;20218;-69
2022/08/11 14:04:03;;;;;;;1.58;0.70;;;28.50;57.70;;;;;;5011023;28;20964;-70
2022/08/11 14:06:31;;;;;;;0.93;0.80;;;28.40;57.80;;;;;;5012035;28;20203;-70
2022/08/11 14:08:59;;;;;;;1.35;1.02;;;28.40;58.20;;;;;;5009493;28;20215;-69
2022/08/11 14:14:18;;;;;;;1.30;0.70;;;28.60;57.40;;;;;;4999978;28;20273;-69
2022/08/11 14:16:48;;;;;;;0.80;0.80;;;28.70;57.40;;;;;;5009132;28;20208;-69
2022/08/11 14:19:17;;;;;;;3.28;0.80;;;28.80;57.30;;;;;;5010668;28;20207;-69
2022/08/11 14:24:28;;;;;;;0.70;0.70;;;28.70;58.00;;;;;;5005380;28;20222;-71
2022/08/11 14:26:55;;;;;;;1.08;0.80;;;28.50;58.60;;;;;;5011442;28;20222;-69
2022/08/11 14:29:26;;;;;;;1.58;1.00;;;28.40;58.70;;;;;;5012264;28;20549;-70
2022/08/11 14:31:56;;;;;;;1.45;0.80;;;28.20;58.80;;;;;;5011170;28;20668;-70
2022/08/11 14:34:25;;;;;;;0.65;0.60;;;28.10;58.80;;;;;;5011466;28;20523;-69
2022/08/11 14:36:54;;;;;;;2.38;0.70;;;27.80;59.10;;;;;;5010530;28;20274;-69
2022/08/11 14:39:23;;;;;;;3.42;1.15;;;27.50;59.50;;;;;;5009996;28;20755;-70
2022/08/11 14:47:31;;;;;;;1.15;1.00;;;27.00;60.80;;;;;;5011460;28;20233;-69
2022/08/11 14:49:59;;;;;;;4.68;1.13;;;26.80;61.50;;;;;;5011440;28;20215;-69
2022/08/11 14:52:27;;;;;;;1.13;0.70;;;26.70;62.00;;;;;;5010009;28;20204;-70
2022/08/11 14:57:42;;;;;;;3.70;0.57;;;26.80;61.80;;;;;;5002897;28;20265;-69
2022/08/11 15:00:14;;;;;;;1.35;0.68;;;26.80;63.60;;;;;;5011227;28;20203;-71
2022/08/11 15:05:27;;;;;;;1.40;0.80;;;26.70;65.90;;;;;;5009648;28;20198;-71
2022/08/11 15:07:57;;;;;;;4.25;1.13;;;26.60;66.40;;;;;;5007992;28;20582;-69
2022/08/11 15:10:24;;;;;;;1.02;0.85;;;26.50;66.80;;;;;;5006816;28;20572;-70
2022/08/11 15:12:53;;;;;;;1.02;0.80;;;26.40;67.30;;;;;;5010532;28;20225;-69
2022/08/11 15:18:07;;;;;;;3.25;0.77;;;26.40;67.50;;;;;;5010272;28;20338;-69
2022/08/11 15:26:08;;;;;;;1.55;0.85;;;26.20;68.60;;;;;;5009021;28;20272;-69
2022/08/11 15:48:14;;;;;;;4.22;0.95;;;26.10;69.00;;;;;;5009388;28;20338;-69
2022/08/11 15:50:48;;;;;;;1.02;0.80;;;26.00;69.50;;;;;;5009835;28;20211;-70
2022/08/11 15:53:23;;;;;;;3.00;1.90;;;25.90;70.20;;;;;;5008360;28;20191;-70
2022/08/11 15:55:51;;;;;;;1.50;0.93;;;25.80;70.50;;;;;;5005465;28;20211;-69
2022/08/11 16:04:14;;;;;;;4.07;1.27;;;25.50;72.60;;;;;;4996861;28;20345;-72
2022/08/11 16:06:51;;;;;;;2.25;1.08;;;25.30;73.60;;;;;;5007646;28;20311;-69
2022/08/11 16:09:23;;;;;;;2.45;0.98;;;25.20;74.60;;;;;;5010176;28;20209;-69
2022/08/11 16:11:52;;;;;;;2.15;1.20;;;25.10;75.50;;;;;;5005816;28;20210;-71
2022/08/11 16:17:11;;;;;;;1.15;1.05;;;24.90;75.20;;;;;;5008644;28;20218;-70
2022/08/11 16:19:41;;;;;;;3.58;0.90;;;24.80;75.60;;;;;;5010508;28;20330;-70
2022/08/11 16:22:11;;;;;;;3.65;1.70;;;24.70;76.10;;;;;;5012278;28;20338;-72
2022/08/11 16:24:43;;;;;;;1.90;1.30;;;24.60;76.40;;;;;;5012563;28;20203;-71
2022/08/11 16:27:13;;;;;;;2.20;1.10;;;24.60;76.70;;;;;;5013461;28;20303;-71
2022/08/11 16:29:44;;;;;;;1.75;1.45;;;24.50;77.00;;;;;;5013603;28;20234;-70
2022/08/11 16:32:19;;;;;;;3.53;1.00;;;24.50;77.70;;;;;;5013419;28;20631;-71
2022/08/11 16:40:23;;;;;;;2.95;1.40;;;24.20;79.40;;;;;;5011368;28;20670;-70
2022/08/11 16:48:27;;;;;;;3.08;1.90;;;24.00;81.50;;;;;;5010680;28;20202;-70
2022/08/11 16:50:55;;;;;;;1.40;1.30;;;23.90;81.80;;;;;;5011870;28;20698;-71
2022/08/11 16:53:22;;;;;;;2.13;1.30;;;23.90;82.50;;;;;;5011636;28;20277;-69
2022/08/11 16:55:52;;;;;;;2.90;1.42;;;23.80;83.00;;;;;;5008458;28;20215;-70
2022/08/11 17:01:07;;;;;;;4.57;1.65;;;23.70;84.10;;;;;;5011345;28;20243;-69
2022/08/11 17:14:45;;;;;;;4.40;1.17;;;23.30;86.40;;;;;;5009527;28;20205;-69
2022/08/11 17:17:16;;;;;;;1.63;1.15;;;23.30;87.10;;;;;;5010052;28;20203;-73
2022/08/11 17:19:49;;;;;;;1.90;1.17;;;23.30;87.70;;;;;;5010220;28;20677;-69
2022/08/11 17:25:04;;;;;;;3.67;1.35;;;23.20;88.40;;;;;;5011571;28;20214;-71
2022/08/11 17:27:34;;;;;;;5.25;1.33;;;23.20;88.70;;;;;;5009407;28;20203;-73
2022/08/11 17:30:04;;;;;;;2.88;1.30;;;23.10;88.60;;;;;;5009193;28;20212;-73
2022/08/11 17:35:33;;;;;;;4.57;1.60;;;23.10;89.40;;;;;;5009670;28;20230;-74
2022/08/11 17:38:03;;;;;;;3.17;1.65;;;22.90;89.60;;;;;;5009141;28;20199;-69
2022/08/11 17:40:35;;;;;;;5.30;1.77;;;22.90;89.90;;;;;;5008898;28;20215;-72
2022/08/11 17:48:37;;;;;;;7.03;2.30;;;22.80;90.40;;;;;;5008128;28;20449;-68
2022/08/11 17:51:10;;;;;;;8.15;2.97;;;22.80;90.70;;;;;;5009799;28;20200;-66
2022/08/11 18:04:56;;;;;;;6.75;1.90;;;22.60;91.10;;;;;;5009143;28;20238;-68
